createdAt,value
2023-01-30T00:01:18.486Z,1.20
2023-01-30T00:03:48.795Z,1.47
2023-01-30T00:06:19.326Z,1.17
2023-01-30T00:08:48.104Z,0.90
2023-01-30T00:11:18.519Z,0.97
2023-01-30T00:13:48.375Z,0.97
2023-01-30T00:16:17.356Z,1.00
2023-01-30T00:18:47.311Z,0.70
2023-01-30T00:21:16.753Z,1.27
2023-01-30T00:23:45.489Z,0.80
2023-01-30T00:26:14.226Z,1.17
2023-01-30T00:28:42.573Z,0.90
2023-01-30T00:31:11.023Z,1.17
2023-01-30T00:33:40.144Z,0.70
2023-01-30T00:36:11.952Z,0.90
2023-01-30T00:38:40.112Z,0.90
2023-01-30T00:41:08.295Z,1.13
2023-01-30T00:43:54.275Z,0.83
2023-01-30T00:46:45.914Z,1.00
2023-01-30T00:49:14.405Z,0.67
2023-01-30T00:51:44.051Z,0.80
2023-01-30T00:54:12.599Z,0.70
2023-01-30T00:56:40.804Z,0.50
2023-01-30T00:59:09.064Z,0.60
2023-01-30T01:01:39.120Z,0.70
2023-01-30T01:04:08.832Z,0.70
2023-01-30T01:06:37.292Z,0.60
2023-01-30T01:09:07.733Z,0.60
2023-01-30T01:11:36.437Z,0.60
2023-01-30T01:14:07.134Z,0.57
2023-01-30T01:16:37.025Z,0.50
2023-01-30T01:19:05.838Z,0.50
2023-01-30T01:21:34.138Z,0.30
2023-01-30T01:24:02.463Z,0.40
2023-01-30T01:26:32.410Z,0.67
2023-01-30T01:29:00.905Z,0.53
2023-01-30T01:31:29.231Z,0.50
2023-01-30T01:33:58.191Z,0.70
2023-01-30T01:36:52.163Z,0.70
2023-01-30T01:39:15.103Z,0.50
2023-01-30T01:41:43.735Z,0.60
2023-01-30T01:44:13.027Z,0.53
2023-01-30T01:46:46.213Z,0.50
2023-01-30T01:49:18.331Z,0.60
2023-01-30T01:51:51.994Z,0.50
2023-01-30T01:54:27.297Z,0.50
2023-01-30T01:56:57.288Z,0.60
2023-01-30T01:59:30.874Z,0.40
2023-01-30T02:02:02.633Z,0.63
2023-01-30T02:04:50.721Z,0.40
2023-01-30T02:07:22.535Z,0.50
2023-01-30T02:09:52.198Z,0.40
2023-01-30T02:12:21.736Z,0.50
2023-01-30T02:14:51.563Z,0.40
2023-01-30T02:17:21.185Z,0.47
2023-01-30T02:19:55.723Z,0.77
2023-01-30T02:22:55.310Z,0.40
2023-01-30T02:25:52.422Z,0.50
2023-01-30T02:28:50.445Z,0.40
2023-01-30T02:31:25.906Z,0.50
2023-01-30T02:34:05.141Z,0.60
2023-01-30T02:36:47.148Z,0.60
2023-01-30T02:39:27.021Z,0.60
2023-01-30T02:42:03.187Z,0.50
2023-01-30T02:44:38.729Z,0.53
2023-01-30T02:47:16.206Z,0.77
2023-01-30T02:49:50.665Z,0.73
2023-01-30T02:52:19.294Z,0.47
2023-01-30T02:54:47.802Z,0.50
2023-01-30T02:57:21.881Z,0.70
2023-01-30T02:59:54.190Z,0.60
2023-01-30T03:02:37.963Z,0.80
2023-01-30T03:05:33.827Z,1.00
2023-01-30T03:08:15.070Z,0.80
2023-01-30T03:10:50.874Z,0.83
2023-01-30T03:13:24.401Z,0.90
2023-01-30T03:15:57.055Z,0.83
2023-01-30T03:18:26.668Z,0.80
2023-01-30T03:20:55.870Z,0.50
2023-01-30T03:23:24.071Z,0.80
2023-01-30T03:25:52.582Z,1.03
2023-01-30T03:28:22.375Z,1.70
2023-01-30T03:30:50.671Z,1.00
2023-01-30T03:33:19.544Z,1.00
2023-01-30T03:35:49.811Z,0.80
2023-01-30T03:38:18.373Z,0.90
2023-01-30T03:40:46.720Z,0.90
2023-01-30T03:43:15.313Z,1.50
2023-01-30T03:45:43.462Z,1.30
2023-01-30T03:48:11.763Z,1.50
2023-01-30T03:50:39.972Z,1.47
2023-01-30T03:53:09.634Z,1.30
2023-01-30T03:55:37.875Z,1.33
2023-01-30T03:58:06.873Z,1.17
2023-01-30T04:00:34.998Z,0.83
2023-01-30T04:03:03.552Z,1.23
2023-01-30T04:05:31.690Z,1.40
2023-01-30T04:08:00.144Z,0.87
2023-01-30T04:10:30.399Z,1.63
2023-01-30T04:12:58.910Z,1.20
2023-01-30T04:15:27.121Z,0.90
2023-01-30T04:17:55.265Z,1.20
2023-01-30T04:20:23.474Z,1.57
2023-01-30T04:22:52.397Z,0.97
2023-01-30T04:25:21.206Z,1.10
2023-01-30T04:27:51.067Z,1.00
2023-01-30T04:30:19.493Z,1.10
2023-01-30T04:32:48.076Z,0.80
2023-01-30T04:35:16.885Z,1.43
2023-01-30T04:37:45.801Z,1.67
2023-01-30T04:40:14.668Z,1.00
2023-01-30T04:42:42.877Z,1.13
2023-01-30T04:45:13.061Z,1.40
2023-01-30T04:47:41.296Z,1.33
2023-01-30T04:50:10.917Z,1.03
2023-01-30T04:52:39.964Z,1.50
2023-01-30T04:55:08.964Z,1.73
2023-01-30T04:57:37.218Z,1.47
2023-01-30T05:00:06.603Z,1.90
2023-01-30T05:02:36.656Z,1.30
2023-01-30T05:05:05.031Z,1.17
2023-01-30T05:07:33.633Z,1.57
2023-01-30T05:10:03.006Z,1.40
2023-01-30T05:12:31.727Z,1.13
2023-01-30T05:15:00.391Z,1.93
2023-01-30T05:17:29.018Z,1.17
2023-01-30T05:19:58.558Z,2.10
2023-01-30T05:22:27.317Z,1.30
2023-01-30T05:24:55.919Z,1.10
2023-01-30T05:27:24.049Z,1.23
2023-01-30T05:29:52.544Z,1.40
2023-01-30T05:32:21.313Z,1.30
2023-01-30T05:34:50.602Z,1.20
2023-01-30T05:37:20.468Z,1.30
2023-01-30T05:39:48.782Z,1.60
2023-01-30T05:42:17.366Z,1.80
2023-01-30T05:44:46.075Z,1.37
2023-01-30T05:47:14.359Z,1.33
2023-01-30T05:49:42.479Z,1.20
2023-01-30T05:52:10.701Z,1.23
2023-01-30T05:54:40.872Z,1.00
2023-01-30T05:57:09.107Z,2.30
2023-01-30T05:59:37.720Z,1.43
2023-01-30T06:02:06.367Z,1.13
2023-01-30T06:04:35.568Z,1.30
2023-01-30T06:07:04.186Z,1.00
2023-01-30T06:09:32.874Z,1.17
2023-01-30T06:12:02.453Z,0.83
2023-01-30T06:14:30.668Z,0.70
2023-01-30T06:16:59.358Z,0.80
2023-01-30T06:19:27.555Z,1.17
2023-01-30T06:21:55.622Z,0.80
2023-01-30T06:24:24.428Z,0.73
2023-01-30T06:26:52.710Z,0.90
2023-01-30T06:29:22.364Z,1.20
2023-01-30T06:31:51.012Z,1.13
2023-01-30T06:34:19.159Z,0.80
2023-01-30T06:36:47.289Z,1.00
2023-01-30T06:39:16.077Z,1.10
2023-01-30T06:41:44.213Z,1.17
2023-01-30T06:44:12.508Z,1.17
2023-01-30T06:46:42.525Z,1.00
2023-01-30T06:49:10.835Z,0.97
2023-01-30T06:51:39.157Z,1.00
2023-01-30T06:54:07.842Z,1.10
2023-01-30T06:56:36.365Z,1.07
2023-01-30T06:59:04.548Z,1.40
2023-01-30T07:01:33.618Z,1.60
2023-01-30T07:04:03.621Z,1.43
2023-01-30T07:06:31.903Z,1.13
2023-01-30T07:09:00.526Z,0.97
2023-01-30T07:11:29.501Z,1.53
2023-01-30T07:13:57.613Z,0.97
2023-01-30T07:16:29.375Z,1.30
2023-01-30T07:18:58.635Z,1.60
2023-01-30T07:21:28.626Z,1.20
2023-01-30T07:23:57.167Z,0.87
2023-01-30T07:26:25.680Z,1.00
2023-01-30T07:28:53.902Z,0.97
2023-01-30T07:31:22.519Z,0.93
2023-01-30T07:33:50.779Z,0.70
2023-01-30T07:36:18.970Z,0.80
2023-01-30T07:38:51.483Z,0.90
2023-01-30T07:41:19.803Z,1.43
2023-01-30T07:43:50.207Z,1.00
2023-01-30T07:46:18.461Z,0.90
2023-01-30T07:48:46.911Z,0.97
2023-01-30T07:51:15.718Z,0.83
2023-01-30T07:53:44.016Z,0.80
2023-01-30T07:56:18.695Z,1.10
2023-01-30T07:58:47.389Z,1.37
2023-01-30T08:01:15.804Z,0.83
2023-01-30T08:03:46.229Z,1.00
2023-01-30T08:06:15.190Z,1.10
2023-01-30T08:08:44.041Z,1.10
2023-01-30T08:11:13.687Z,0.80
2023-01-30T08:13:42.489Z,1.00
2023-01-30T08:16:10.783Z,0.90
2023-01-30T08:18:38.911Z,0.70
2023-01-30T08:21:08.684Z,1.00
2023-01-30T08:23:36.768Z,0.83
2023-01-30T08:26:06.279Z,0.90
2023-01-30T08:28:36.090Z,0.90
2023-01-30T08:31:04.365Z,1.10
2023-01-30T08:33:32.601Z,0.90
2023-01-30T08:36:01.441Z,1.03
2023-01-30T08:38:29.676Z,1.00
2023-01-30T08:40:59.463Z,0.90
2023-01-30T08:43:28.493Z,0.83
2023-01-30T08:45:58.304Z,0.83
2023-01-30T08:48:29.722Z,0.90
2023-01-30T08:50:59.023Z,1.20
2023-01-30T08:53:27.182Z,0.90
2023-01-30T08:55:55.507Z,1.10
2023-01-30T08:58:24.081Z,1.00
2023-01-30T09:00:52.366Z,1.43
2023-01-30T09:03:21.980Z,0.87
2023-01-30T09:05:55.895Z,1.10
2023-01-30T09:08:24.251Z,1.00
2023-01-30T09:10:53.034Z,1.20
2023-01-30T09:13:21.272Z,1.10
2023-01-30T09:15:49.892Z,0.90
2023-01-30T09:18:18.075Z,0.80
2023-01-30T09:20:47.778Z,1.30
2023-01-30T09:23:16.577Z,0.93
2023-01-30T09:25:46.308Z,1.20
2023-01-30T09:28:15.149Z,1.10
2023-01-30T09:30:43.996Z,0.90
2023-01-30T09:33:12.257Z,1.30
2023-01-30T09:35:40.848Z,1.10
2023-01-30T09:38:10.959Z,0.83
2023-01-30T09:40:52.275Z,0.90
2023-01-30T09:43:46.056Z,0.80
2023-01-30T09:46:22.917Z,0.80
2023-01-30T09:49:00.740Z,0.90
2023-01-30T09:51:38.955Z,1.03
2023-01-30T09:54:20.314Z,1.37
2023-01-30T09:56:54.700Z,1.00
2023-01-30T09:59:29.906Z,0.73
2023-01-30T10:02:07.041Z,0.90
2023-01-30T10:04:40.378Z,0.90
2023-01-30T10:07:24.034Z,1.03
2023-01-30T10:09:58.468Z,0.70
2023-01-30T10:12:37.785Z,0.87
2023-01-30T10:15:35.653Z,1.00
2023-01-30T10:18:34.495Z,0.60
2023-01-30T10:21:12.565Z,0.70
2023-01-30T10:23:54.132Z,1.20
2023-01-30T10:26:26.798Z,0.60
2023-01-30T10:29:07.383Z,0.80
2023-01-30T10:31:43.760Z,0.70
2023-01-30T10:34:18.635Z,1.00
2023-01-30T10:36:55.727Z,0.80
2023-01-30T10:39:29.859Z,0.70
2023-01-30T10:42:10.888Z,0.80
2023-01-30T10:44:41.393Z,0.60
2023-01-30T10:47:41.744Z,0.83
2023-01-30T10:50:18.205Z,0.70
2023-01-30T10:52:55.457Z,0.97
2023-01-30T10:55:37.779Z,1.13
2023-01-30T10:58:16.429Z,0.90
2023-01-30T11:00:49.343Z,0.80
2023-01-30T11:03:26.324Z,0.73
2023-01-30T11:05:58.646Z,0.73
2023-01-30T11:08:29.568Z,1.00
2023-01-30T11:10:59.013Z,0.50
2023-01-30T11:13:32.715Z,0.67
2023-01-30T11:16:06.480Z,0.80
2023-01-30T11:21:43.477Z,0.70
2023-01-30T11:24:18.203Z,0.60
2023-01-30T11:26:48.643Z,0.90
2023-01-30T11:29:27.073Z,0.63
2023-01-30T11:31:55.760Z,0.77
2023-01-30T11:34:25.342Z,0.70
2023-01-30T11:36:53.952Z,0.80
2023-01-30T11:39:25.125Z,0.80
2023-01-30T11:42:05.079Z,1.10
2023-01-30T11:44:37.177Z,0.80
2023-01-30T11:47:08.890Z,0.80
2023-01-30T11:49:46.377Z,0.47
2023-01-30T11:52:31.095Z,0.70
2023-01-30T11:55:05.438Z,1.10
2023-01-30T11:57:41.484Z,0.50
2023-01-30T12:00:20.774Z,0.63
2023-01-30T12:02:50.805Z,0.67
2023-01-30T12:05:26.279Z,0.77
2023-01-30T12:07:54.984Z,0.53
2023-01-30T12:10:32.328Z,0.60
2023-01-30T12:13:05.030Z,0.60
2023-01-30T12:15:36.462Z,0.60
2023-01-30T12:18:11.764Z,0.60
2023-01-30T12:20:49.948Z,0.50
2023-01-30T12:23:25.315Z,0.70
2023-01-30T12:26:00.996Z,0.80
2023-01-30T12:28:39.869Z,0.50
2023-01-30T12:31:13.612Z,0.60
2023-01-30T12:33:42.216Z,0.63
2023-01-30T12:36:17.894Z,0.47
2023-01-30T12:39:05.119Z,0.47
2023-01-30T12:41:43.597Z,0.40
2023-01-30T12:44:34.101Z,0.50
2023-01-30T12:47:26.533Z,0.50
2023-01-30T12:50:06.474Z,0.70
2023-01-30T12:53:01.772Z,0.73
2023-01-30T12:55:38.069Z,0.57
2023-01-30T12:58:15.656Z,0.67
2023-01-30T13:01:04.535Z,0.50
2023-01-30T13:03:40.600Z,0.80
2023-01-30T13:06:21.514Z,0.50
2023-01-30T13:09:02.806Z,0.50
2023-01-30T13:11:50.046Z,0.50
2023-01-30T13:14:27.463Z,0.50
2023-01-30T13:17:25.585Z,0.53
2023-01-30T13:20:04.202Z,0.50
2023-01-30T13:22:39.484Z,0.60
2023-01-30T13:25:20.740Z,0.40
2023-01-30T13:27:56.189Z,0.50
2023-01-30T13:30:27.616Z,0.50
2023-01-30T13:32:59.728Z,0.50
2023-01-30T13:35:35.635Z,0.50
2023-01-30T13:38:05.687Z,0.47
2023-01-30T13:40:39.929Z,0.60
2023-01-30T13:43:17.626Z,0.40
2023-01-30T13:45:48.671Z,0.60
2023-01-30T13:48:34.595Z,0.60
2023-01-30T13:51:24.403Z,0.50
2023-01-30T13:53:59.434Z,0.60
2023-01-30T13:56:41.935Z,0.43
2023-01-30T13:59:23.443Z,0.40
2023-01-30T14:02:18.035Z,0.70
2023-01-30T14:04:48.369Z,0.50
2023-01-30T14:07:24.155Z,0.70
2023-01-30T14:10:08.219Z,0.40
2023-01-30T14:12:40.376Z,0.40
2023-01-30T14:15:24.354Z,0.40
2023-01-30T14:18:00.617Z,0.50
2023-01-30T14:20:30.491Z,0.37
2023-01-30T14:23:03.462Z,0.40
2023-01-30T14:25:36.559Z,0.40
2023-01-30T14:28:50.113Z,0.40
2023-01-30T14:31:51.983Z,0.40
2023-01-30T14:34:48.430Z,0.60
2023-01-30T14:37:47.754Z,0.40
2023-01-30T14:40:37.444Z,0.70
2023-01-30T14:43:42.241Z,0.50
2023-01-30T14:46:54.509Z,0.40
2023-01-30T14:49:32.049Z,0.40
2023-01-30T14:52:01.272Z,0.40
2023-01-30T14:54:42.269Z,0.50
2023-01-30T14:57:24.653Z,0.30
2023-01-30T15:00:14.186Z,0.40
2023-01-30T15:02:48.373Z,0.50
2023-01-30T15:05:21.199Z,0.50
2023-01-30T15:07:52.852Z,0.40
2023-01-30T15:10:34.871Z,0.50
2023-01-30T15:13:39.824Z,0.40
2023-01-30T15:16:30.092Z,0.50
2023-01-30T15:19:18.858Z,0.50
2023-01-30T15:22:00.553Z,0.40
2023-01-30T15:25:02.271Z,0.40
2023-01-30T15:27:37.716Z,0.60
2023-01-30T15:30:19.100Z,0.40
2023-01-30T15:32:47.814Z,0.40
2023-01-30T15:35:25.791Z,0.37
2023-01-30T15:37:55.758Z,0.47
2023-01-30T15:40:26.161Z,0.47
2023-01-30T15:43:02.937Z,0.50
2023-01-30T15:45:42.106Z,0.40
2023-01-30T15:48:27.739Z,0.40
2023-01-30T15:50:58.851Z,0.40
2023-01-30T15:53:31.077Z,0.57
2023-01-30T15:56:01.602Z,0.30
2023-01-30T15:58:31.643Z,0.40
2023-01-30T16:01:02.616Z,0.33
2023-01-30T16:03:36.740Z,0.40
2023-01-30T16:06:06.840Z,0.30
2023-01-30T16:08:37.305Z,0.50
2023-01-30T16:11:05.707Z,0.43
2023-01-30T16:13:35.030Z,0.40
2023-01-30T16:16:09.662Z,0.30
2023-01-30T16:18:40.521Z,0.30
2023-01-30T16:21:20.086Z,0.37
2023-01-30T16:23:56.118Z,0.47
2023-01-30T16:26:24.689Z,0.40
2023-01-30T16:29:02.056Z,0.40
2023-01-30T16:31:35.825Z,0.60
2023-01-30T16:34:04.518Z,0.43
2023-01-30T16:36:39.672Z,0.30
2023-01-30T16:39:32.154Z,0.40
2023-01-30T16:42:02.136Z,0.47
2023-01-30T16:44:31.746Z,0.30
2023-01-30T16:47:04.129Z,0.30
2023-01-30T16:49:44.171Z,0.40
2023-01-30T16:52:24.977Z,0.43
2023-01-30T16:54:55.987Z,0.50
2023-01-30T16:57:36.578Z,0.37
2023-01-30T17:00:10.073Z,0.30
2023-01-30T17:02:43.710Z,0.40
2023-01-30T17:05:31.326Z,0.30
2023-01-30T17:08:00.631Z,0.30
2023-01-30T17:10:55.272Z,0.40
2023-01-30T17:13:35.214Z,0.50
2023-01-30T17:16:28.787Z,0.57
2023-01-30T17:18:59.812Z,0.30
2023-01-30T17:21:31.509Z,0.43
2023-01-30T17:24:02.834Z,0.30
2023-01-30T17:26:31.889Z,0.40
2023-01-30T17:29:00.605Z,0.40
2023-01-30T17:31:29.327Z,0.60
2023-01-30T17:33:59.003Z,0.50
2023-01-30T17:36:28.411Z,0.43
2023-01-30T17:38:57.541Z,0.47
2023-01-30T17:41:28.552Z,0.43
2023-01-30T17:43:56.765Z,1.00
2023-01-30T17:46:28.484Z,0.57
2023-01-30T17:48:58.121Z,0.43
2023-01-30T17:51:28.316Z,0.43
2023-01-30T17:53:56.518Z,0.30
2023-01-30T17:56:29.905Z,0.80
2023-01-30T17:58:58.359Z,0.43
2023-01-30T18:01:27.760Z,0.50
2023-01-30T18:03:55.999Z,0.77
2023-01-30T18:06:27.250Z,0.50
2023-01-30T18:08:55.527Z,0.60
2023-01-30T18:11:24.076Z,0.83
2023-01-30T18:13:52.549Z,0.60
2023-01-30T18:16:24.542Z,0.50
2023-01-30T18:18:52.820Z,0.50
2023-01-30T18:21:22.976Z,0.60
2023-01-30T18:23:52.663Z,0.80
2023-01-30T18:26:21.036Z,0.50
2023-01-30T18:28:49.453Z,0.70
2023-01-30T18:31:18.259Z,0.57
2023-01-30T18:33:47.359Z,0.53
2023-01-30T18:36:17.373Z,0.50
2023-01-30T18:38:46.454Z,0.43
2023-01-30T18:41:18.171Z,0.80
2023-01-30T18:43:48.482Z,0.50
2023-01-30T18:46:18.495Z,0.40
2023-01-30T18:48:47.294Z,0.50
2023-01-30T18:51:17.975Z,0.70
2023-01-30T18:53:47.915Z,0.60
2023-01-30T18:56:21.941Z,0.50
2023-01-30T18:58:52.419Z,0.50
2023-01-30T19:01:22.991Z,0.40
2023-01-30T19:03:55.783Z,0.50
2023-01-30T19:06:24.711Z,0.80
2023-01-30T19:08:52.997Z,0.40
2023-01-30T19:11:41.459Z,0.50
2023-01-30T19:14:10.371Z,0.50
2023-01-30T19:16:40.163Z,0.70
2023-01-30T19:19:10.254Z,0.60
2023-01-30T19:21:39.009Z,0.70
2023-01-30T19:24:09.651Z,0.53
2023-01-30T19:26:39.343Z,1.07
2023-01-30T19:29:07.650Z,0.73
2023-01-30T19:31:35.839Z,0.40
2023-01-30T19:34:07.217Z,0.70
2023-01-30T19:36:37.073Z,0.70
2023-01-30T19:39:06.411Z,0.50
2023-01-30T19:41:36.874Z,0.67
2023-01-30T19:44:08.596Z,0.77
2023-01-30T19:46:37.017Z,0.60
2023-01-30T19:49:05.864Z,0.70
2023-01-30T19:51:35.767Z,0.60
2023-01-30T19:54:06.720Z,0.57
2023-01-30T19:56:36.743Z,0.47
2023-01-30T19:59:06.781Z,0.50
2023-01-30T20:01:40.077Z,0.53
2023-01-30T20:04:08.748Z,0.50
2023-01-30T20:06:38.469Z,0.57
2023-01-30T20:09:09.728Z,0.50
2023-01-30T20:11:42.062Z,0.30
2023-01-30T20:14:13.807Z,0.60
2023-01-30T20:16:42.166Z,0.40
2023-01-30T20:19:14.448Z,0.50
2023-01-30T20:21:43.453Z,0.50
2023-01-30T20:24:13.102Z,0.40
2023-01-30T20:26:42.311Z,0.60
2023-01-30T20:29:12.182Z,0.50
2023-01-30T20:31:40.742Z,0.50
2023-01-30T20:34:13.123Z,0.60
2023-01-30T20:36:41.552Z,0.47
2023-01-30T20:39:10.195Z,0.60
2023-01-30T20:41:39.595Z,0.50
2023-01-30T20:44:09.534Z,0.50
2023-01-30T20:46:41.730Z,0.50
2023-01-30T20:49:13.623Z,0.50
2023-01-30T20:51:42.683Z,0.43
2023-01-30T20:54:12.703Z,0.60
2023-01-30T20:56:43.010Z,0.50
2023-01-30T20:59:13.448Z,2.77
2023-01-30T21:01:43.869Z,0.50
2023-01-30T21:04:15.014Z,0.50
2023-01-30T21:06:46.065Z,0.50
2023-01-30T21:09:18.343Z,0.70
2023-01-30T21:11:46.827Z,0.50
2023-01-30T21:14:15.784Z,0.40
2023-01-30T21:16:46.551Z,0.47
2023-01-30T21:19:17.025Z,0.40
2023-01-30T21:21:51.183Z,0.40
2023-01-30T21:24:22.249Z,0.60
2023-01-30T21:26:50.772Z,1.03
2023-01-30T21:29:22.010Z,0.60
2023-01-30T21:31:52.176Z,0.43
2023-01-30T21:34:20.563Z,0.80
2023-01-30T21:37:09.249Z,0.60
2023-01-30T21:39:54.926Z,0.67
2023-01-30T21:42:40.805Z,0.63
2023-01-30T21:45:09.885Z,0.83
2023-01-30T21:47:39.978Z,0.70
2023-01-30T21:50:09.055Z,0.83
2023-01-30T21:52:37.908Z,0.67
2023-01-30T21:55:06.799Z,0.67
2023-01-30T21:57:35.372Z,1.60
2023-01-30T22:00:03.779Z,1.03
2023-01-30T22:02:32.272Z,1.27
2023-01-30T22:05:01.858Z,0.93
2023-01-30T22:07:29.998Z,0.90
2023-01-30T22:09:58.462Z,1.00
2023-01-30T22:12:27.257Z,0.57
2023-01-30T22:14:55.665Z,0.50
2023-01-30T22:17:24.340Z,1.10
2023-01-30T22:19:53.025Z,0.80
2023-01-30T22:22:25.145Z,0.70
2023-01-30T22:24:53.681Z,1.03
2023-01-30T22:27:21.860Z,0.80
2023-01-30T22:29:50.595Z,1.10
2023-01-30T22:32:18.994Z,1.00
2023-01-30T22:34:47.103Z,0.90
2023-01-30T22:37:16.410Z,0.97
2023-01-30T22:39:46.424Z,0.80
2023-01-30T22:42:14.617Z,0.70
2023-01-30T22:44:42.744Z,1.17
2023-01-30T22:47:11.561Z,0.70
2023-01-30T22:49:39.788Z,1.00
2023-01-30T22:52:07.936Z,0.90
2023-01-30T22:54:36.226Z,0.90
2023-01-30T22:57:05.791Z,0.70
2023-01-30T22:59:33.998Z,1.07
2023-01-30T23:02:02.782Z,0.90
2023-01-30T23:04:31.039Z,0.80
2023-01-30T23:06:59.681Z,0.70
2023-01-30T23:09:28.352Z,0.83
2023-01-30T23:12:15.481Z,0.70
2023-01-30T23:14:46.226Z,0.90
2023-01-30T23:17:31.684Z,0.60
2023-01-30T23:20:00.400Z,0.73
2023-01-30T23:22:29.321Z,0.90
2023-01-30T23:24:57.497Z,0.60
2023-01-30T23:27:26.328Z,0.53
2023-01-30T23:29:55.961Z,0.50
2023-01-30T23:32:24.144Z,0.80
2023-01-30T23:34:53.269Z,0.70
2023-01-30T23:37:42.919Z,0.60
2023-01-30T23:40:12.514Z,0.73
2023-01-30T23:42:40.671Z,0.67
2023-01-30T23:45:11.402Z,0.87
2023-01-30T23:47:40.081Z,0.50
2023-01-30T23:50:08.714Z,0.80
2023-01-30T23:52:36.832Z,0.67
2023-01-30T23:55:06.842Z,0.70
2023-01-30T23:57:35.136Z,0.70
